createdAt,value
2023-03-07T00:01:51.261Z,7.70
2023-03-07T00:04:19.636Z,9.40
2023-03-07T00:06:48.393Z,6.90
2023-03-07T00:09:16.785Z,7.90
2023-03-07T00:11:45.142Z,9.10
2023-03-07T00:14:13.477Z,8.20
2023-03-07T00:16:41.870Z,8.80
2023-03-07T00:19:10.412Z,8.50
2023-03-07T00:21:38.877Z,8.50
2023-03-07T00:24:08.162Z,8.40
2023-03-07T00:26:39.848Z,8.10
2023-03-07T00:29:09.817Z,9.20
2023-03-07T00:31:38.561Z,8.30
2023-03-07T00:34:07.033Z,6.80
2023-03-07T00:36:35.414Z,8.60
2023-03-07T00:39:04.499Z,8.60
2023-03-07T00:41:32.841Z,8.70
2023-03-07T00:44:01.151Z,9.00
2023-03-07T00:46:29.637Z,9.00
2023-03-07T00:48:58.358Z,9.50
2023-03-07T00:51:26.815Z,9.80
2023-03-07T00:53:55.224Z,10.40
2023-03-07T00:56:25.963Z,9.40
2023-03-07T00:58:54.360Z,8.40
2023-03-07T01:01:25.582Z,8.30
2023-03-07T01:03:54.291Z,10.80
2023-03-07T01:06:28.843Z,9.20
2023-03-07T01:08:59.792Z,11.20
2023-03-07T01:11:30.077Z,12.70
2023-03-07T01:14:00.996Z,12.00
2023-03-07T01:16:34.840Z,16.40
2023-03-07T01:19:07.049Z,13.20
2023-03-07T01:21:38.496Z,12.30
2023-03-07T01:24:08.502Z,12.40
2023-03-07T01:26:37.805Z,13.50
2023-03-07T01:29:07.732Z,12.70
2023-03-07T01:31:37.827Z,11.90
2023-03-07T01:34:06.589Z,12.00
2023-03-07T01:36:39.129Z,14.10
2023-03-07T01:39:17.278Z,14.70
2023-03-07T01:42:09.124Z,13.20
2023-03-07T01:44:59.519Z,13.00
2023-03-07T01:47:35.348Z,13.90
2023-03-07T01:50:14.600Z,9.90
2023-03-07T01:52:57.096Z,11.80
2023-03-07T01:55:33.226Z,10.10
2023-03-07T01:58:15.454Z,8.60
2023-03-07T02:00:45.328Z,8.90
2023-03-07T02:03:36.782Z,8.70
2023-03-07T02:06:09.833Z,9.40
2023-03-07T02:11:08.392Z,13.20
2023-03-07T02:13:38.025Z,13.30
2023-03-07T02:16:07.948Z,14.80
2023-03-07T02:18:44.188Z,16.00
2023-03-07T02:21:19.486Z,15.00
2023-03-07T02:23:53.944Z,13.90
2023-03-07T02:26:31.379Z,13.30
2023-03-07T02:29:01.597Z,12.70
2023-03-07T02:31:30.473Z,11.40
2023-03-07T02:34:00.077Z,11.80
2023-03-07T02:36:33.988Z,11.50
2023-03-07T02:39:30.551Z,9.50
2023-03-07T02:42:04.953Z,10.50
2023-03-07T02:44:40.658Z,10.30
2023-03-07T02:47:10.075Z,11.00
2023-03-07T02:49:38.667Z,10.10
2023-03-07T02:52:07.465Z,10.30
2023-03-07T02:54:35.904Z,11.00
2023-03-07T02:57:04.836Z,11.00
2023-03-07T02:59:33.349Z,12.90
2023-03-07T03:02:01.788Z,10.40
2023-03-07T03:04:30.218Z,10.80
2023-03-07T03:06:58.652Z,12.30
2023-03-07T03:09:27.524Z,12.10
2023-03-07T03:11:55.921Z,11.70
2023-03-07T03:14:26.009Z,12.30
2023-03-07T03:16:54.797Z,11.40
2023-03-07T03:19:23.180Z,11.20
2023-03-07T03:21:51.793Z,11.30
2023-03-07T03:24:20.418Z,12.50
2023-03-07T03:26:49.990Z,12.60
2023-03-07T03:29:18.793Z,13.60
2023-03-07T03:31:47.196Z,14.20
2023-03-07T03:34:15.583Z,14.00
2023-03-07T03:36:43.962Z,14.80
2023-03-07T03:39:12.357Z,13.70
2023-03-07T03:41:45.439Z,14.80
2023-03-07T03:44:13.856Z,14.50
2023-03-07T03:46:42.257Z,13.50
2023-03-07T03:49:13.691Z,14.20
2023-03-07T03:51:43.619Z,12.50
2023-03-07T03:54:11.979Z,13.20
2023-03-07T03:56:40.342Z,13.00
2023-03-07T03:59:09.462Z,14.40
2023-03-07T04:01:37.921Z,14.00
2023-03-07T04:04:06.485Z,14.60
2023-03-07T04:06:35.563Z,14.00
2023-03-07T04:09:05.424Z,15.30
2023-03-07T04:11:33.965Z,15.70
2023-03-07T04:14:02.817Z,16.20
2023-03-07T04:16:31.422Z,17.90
2023-03-07T04:19:00.647Z,17.50
2023-03-07T04:21:29.111Z,17.40
2023-03-07T04:23:59.156Z,18.80
2023-03-07T04:26:32.675Z,17.10
2023-03-07T04:29:01.115Z,16.20
2023-03-07T04:31:40.814Z,19.30
2023-03-07T04:34:09.862Z,17.60
2023-03-07T04:36:38.428Z,19.90
2023-03-07T04:39:07.224Z,19.60
2023-03-07T04:41:36.231Z,16.90
2023-03-07T04:44:09.197Z,18.60
2023-03-07T04:46:37.862Z,17.90
2023-03-07T04:49:06.684Z,16.90
2023-03-07T04:51:35.431Z,18.60
2023-03-07T04:54:03.889Z,19.00
2023-03-07T04:56:32.459Z,20.40
2023-03-07T04:59:01.793Z,20.10
2023-03-07T05:01:30.313Z,22.90
2023-03-07T05:03:59.663Z,22.70
2023-03-07T05:06:28.406Z,23.20
2023-03-07T05:08:56.748Z,23.80
2023-03-07T05:11:25.207Z,30.20
2023-03-07T05:13:54.100Z,29.00
2023-03-07T05:16:24.030Z,26.60
2023-03-07T05:18:52.434Z,23.30
2023-03-07T05:21:20.916Z,22.30
2023-03-07T05:23:50.199Z,20.00
2023-03-07T05:26:18.981Z,20.60
2023-03-07T05:28:47.407Z,19.30
2023-03-07T05:31:18.123Z,19.20
2023-03-07T05:33:47.998Z,18.70
2023-03-07T05:36:17.530Z,17.40
2023-03-07T05:38:46.027Z,18.10
2023-03-07T05:41:14.413Z,19.30
2023-03-07T05:43:45.997Z,23.40
2023-03-07T05:46:14.472Z,24.00
2023-03-07T05:48:42.811Z,22.70
2023-03-07T05:51:11.834Z,21.80
2023-03-07T05:53:40.337Z,20.60
2023-03-07T05:56:09.879Z,22.70
2023-03-07T05:58:39.210Z,21.20
2023-03-07T06:01:07.756Z,20.70
2023-03-07T06:03:36.301Z,19.20
2023-03-07T06:06:04.888Z,22.50
2023-03-07T06:08:36.385Z,23.20
2023-03-07T06:11:05.054Z,22.10
2023-03-07T06:13:36.017Z,24.00
2023-03-07T06:16:04.523Z,23.70
2023-03-07T06:18:33.086Z,25.70
2023-03-07T06:21:06.580Z,26.00
2023-03-07T06:23:39.305Z,25.20
2023-03-07T06:26:12.736Z,26.40
2023-03-07T06:28:42.797Z,22.70
2023-03-07T06:31:13.614Z,25.70
2023-03-07T06:33:43.024Z,24.40
2023-03-07T06:36:15.369Z,25.50
2023-03-07T06:38:44.874Z,26.20
2023-03-07T06:41:14.224Z,27.70
2023-03-07T06:43:43.075Z,25.40
2023-03-07T06:46:11.799Z,24.20
2023-03-07T06:48:42.258Z,25.70
2023-03-07T06:51:14.362Z,25.80
2023-03-07T06:53:43.756Z,25.90
2023-03-07T06:56:12.158Z,27.60
2023-03-07T06:58:40.647Z,26.20
2023-03-07T07:01:19.437Z,25.50
2023-03-07T07:03:50.143Z,19.70
2023-03-07T07:06:18.834Z,22.00
2023-03-07T07:08:47.186Z,13.30
2023-03-07T07:11:15.659Z,12.10
2023-03-07T07:13:45.947Z,9.60
2023-03-07T07:16:17.136Z,10.90
2023-03-07T07:18:46.270Z,11.20
2023-03-07T07:21:16.719Z,10.30
2023-03-07T07:23:45.216Z,10.80
2023-03-07T07:26:13.766Z,11.90
2023-03-07T07:28:42.218Z,11.70
2023-03-07T07:31:10.810Z,11.50
2023-03-07T07:33:42.813Z,12.60
2023-03-07T07:36:13.963Z,16.60
2023-03-07T07:38:42.351Z,14.40
2023-03-07T07:41:10.773Z,11.70
2023-03-07T07:43:39.177Z,12.10
2023-03-07T07:46:19.870Z,13.40
2023-03-07T07:48:48.518Z,15.70
2023-03-07T07:51:17.519Z,15.80
2023-03-07T07:53:46.131Z,17.10
2023-03-07T07:56:14.798Z,15.40
2023-03-07T07:58:43.739Z,14.70
2023-03-07T08:01:16.944Z,9.70
2023-03-07T08:06:19.847Z,13.70
2023-03-07T08:08:48.912Z,13.80
2023-03-07T08:11:18.755Z,13.70
2023-03-07T08:13:47.183Z,12.00
2023-03-07T08:16:18.904Z,11.50
2023-03-07T08:18:53.746Z,11.00
2023-03-07T08:21:23.849Z,10.00
2023-03-07T08:23:57.033Z,9.80
2023-03-07T08:26:25.515Z,9.50
2023-03-07T08:28:54.653Z,9.70
2023-03-07T08:31:24.608Z,9.90
2023-03-07T08:33:53.316Z,10.10
2023-03-07T08:36:21.782Z,9.80
2023-03-07T08:38:52.157Z,8.90
2023-03-07T08:41:22.713Z,8.50
2023-03-07T08:43:51.837Z,8.00
2023-03-07T08:46:20.478Z,8.10
2023-03-07T08:48:48.891Z,7.40
2023-03-07T08:51:18.279Z,8.40
2023-03-07T08:53:47.252Z,8.80
2023-03-07T08:56:18.454Z,7.10
2023-03-07T08:58:47.006Z,7.80
2023-03-07T09:01:15.458Z,6.90
2023-03-07T09:03:43.971Z,7.40
2023-03-07T09:06:20.713Z,7.40
2023-03-07T09:08:50.493Z,6.10
2023-03-07T09:11:21.833Z,6.00
2023-03-07T09:13:52.854Z,6.60
2023-03-07T09:16:22.394Z,6.70
2023-03-07T09:18:50.854Z,7.40
2023-03-07T09:21:19.860Z,7.40
2023-03-07T09:23:48.339Z,7.30
2023-03-07T09:26:17.087Z,6.40
2023-03-07T09:28:45.574Z,6.80
2023-03-07T09:31:15.422Z,5.30
2023-03-07T09:33:46.196Z,6.20
2023-03-07T09:36:16.534Z,8.30
2023-03-07T09:38:44.886Z,5.40
2023-03-07T09:41:22.938Z,5.90
2023-03-07T09:44:10.811Z,6.30
2023-03-07T09:47:10.717Z,7.10
2023-03-07T09:49:49.764Z,6.00
2023-03-07T09:52:25.013Z,6.10
2023-03-07T09:55:00.770Z,5.90
2023-03-07T09:57:51.669Z,6.10
2023-03-07T10:00:22.775Z,6.00
2023-03-07T10:03:03.327Z,6.10
2023-03-07T10:05:39.291Z,5.60
2023-03-07T10:08:14.316Z,6.70
2023-03-07T10:11:14.387Z,5.20
2023-03-07T10:14:04.553Z,5.50
2023-03-07T10:16:44.187Z,4.70
2023-03-07T10:19:31.023Z,6.10
2023-03-07T10:22:24.073Z,4.40
2023-03-07T10:25:08.625Z,5.10
2023-03-07T10:27:38.961Z,5.40
2023-03-07T10:30:18.183Z,4.50
2023-03-07T10:33:01.419Z,4.30
2023-03-07T10:35:46.655Z,4.40
2023-03-07T10:38:36.550Z,5.10
2023-03-07T10:41:16.630Z,4.60
2023-03-07T10:43:46.173Z,4.00
2023-03-07T10:46:27.431Z,4.60
2023-03-07T10:49:13.922Z,3.80
2023-03-07T10:51:51.263Z,3.90
2023-03-07T10:54:24.624Z,4.60
2023-03-07T10:57:15.057Z,3.30
2023-03-07T10:59:48.879Z,4.70
2023-03-07T11:02:36.822Z,6.50
2023-03-07T11:05:28.245Z,6.50
2023-03-07T11:07:56.567Z,6.90
2023-03-07T11:10:39.664Z,7.60
2023-03-07T11:13:15.590Z,7.20
2023-03-07T11:15:45.544Z,6.40
2023-03-07T11:18:41.919Z,6.30
2023-03-07T11:21:30.491Z,7.10
2023-03-07T11:24:07.445Z,6.00
2023-03-07T11:26:40.933Z,6.50
2023-03-07T11:29:12.610Z,6.40
2023-03-07T11:31:53.163Z,7.70
2023-03-07T11:34:34.274Z,6.60
2023-03-07T11:37:32.199Z,7.00
2023-03-07T11:40:00.480Z,5.70
2023-03-07T11:42:34.978Z,6.10
2023-03-07T11:45:41.814Z,7.10
2023-03-07T11:48:27.963Z,6.20
2023-03-07T11:51:00.061Z,6.40
2023-03-07T11:53:39.130Z,7.30
2023-03-07T11:56:16.570Z,7.20
2023-03-07T11:59:17.215Z,7.20
2023-03-07T12:01:58.676Z,7.20
2023-03-07T12:04:48.336Z,6.30
2023-03-07T12:07:44.660Z,6.30
2023-03-07T12:10:30.794Z,7.10
2023-03-07T12:13:14.344Z,6.00
2023-03-07T12:16:01.943Z,5.80
2023-03-07T12:18:30.397Z,6.60
2023-03-07T12:21:11.044Z,5.90
2023-03-07T12:23:49.042Z,6.00
2023-03-07T12:27:05.930Z,5.90
2023-03-07T12:29:59.782Z,6.60
2023-03-07T12:32:31.385Z,5.90
2023-03-07T12:35:02.129Z,5.80
2023-03-07T12:38:08.310Z,6.50
2023-03-07T12:40:45.255Z,6.90
2023-03-07T12:43:29.672Z,6.30
2023-03-07T12:46:12.430Z,7.40
2023-03-07T12:48:57.174Z,5.70
2023-03-07T12:51:31.373Z,5.70
2023-03-07T12:54:03.489Z,5.40
2023-03-07T12:56:45.521Z,5.20
2023-03-07T12:59:16.268Z,4.90
2023-03-07T13:02:07.807Z,4.30
2023-03-07T13:04:42.896Z,4.50
2023-03-07T13:07:32.236Z,3.40
2023-03-07T13:10:06.235Z,4.50
2023-03-07T13:12:36.930Z,3.90
2023-03-07T13:15:25.690Z,4.20
2023-03-07T13:17:53.986Z,4.70
2023-03-07T13:20:28.709Z,5.70
2023-03-07T13:23:00.428Z,5.30
2023-03-07T13:25:38.863Z,5.60
2023-03-07T13:28:35.965Z,8.80
2023-03-07T13:31:15.510Z,6.70
2023-03-07T13:33:44.187Z,7.00
2023-03-07T13:36:39.137Z,7.30
2023-03-07T13:39:36.414Z,9.60
2023-03-07T13:42:05.203Z,8.60
2023-03-07T13:44:40.216Z,8.10
2023-03-07T13:47:43.468Z,7.60
2023-03-07T13:50:34.076Z,8.70
2023-03-07T13:53:04.496Z,7.60
2023-03-07T13:55:41.846Z,8.30
2023-03-07T13:58:34.900Z,8.00
2023-03-07T14:01:12.900Z,6.20
2023-03-07T14:03:47.947Z,5.20
2023-03-07T14:06:46.929Z,5.60
2023-03-07T14:09:20.439Z,6.50
2023-03-07T14:12:11.472Z,5.50
2023-03-07T14:14:57.690Z,6.40
2023-03-07T14:17:28.944Z,7.20
2023-03-07T14:20:21.442Z,6.30
2023-03-07T14:22:59.024Z,9.60
2023-03-07T14:26:15.783Z,10.10
2023-03-07T14:28:59.190Z,8.10
2023-03-07T14:33:59.077Z,7.90
2023-03-07T14:36:32.546Z,8.90
2023-03-07T14:39:04.683Z,6.70
2023-03-07T14:41:39.566Z,8.10
2023-03-07T14:44:22.369Z,7.60
2023-03-07T14:47:06.184Z,8.20
2023-03-07T14:49:53.083Z,6.80
2023-03-07T14:52:30.814Z,6.90
2023-03-07T14:55:03.326Z,6.80
2023-03-07T14:57:43.588Z,7.50
2023-03-07T15:00:23.090Z,7.50
2023-03-07T15:02:58.206Z,6.70
2023-03-07T15:05:30.603Z,7.70
2023-03-07T15:07:59.217Z,7.20
2023-03-07T15:10:41.533Z,7.30
2023-03-07T15:13:31.280Z,7.80
2023-03-07T15:16:05.095Z,7.80
2023-03-07T15:18:42.855Z,7.50
2023-03-07T15:21:19.838Z,7.60
2023-03-07T15:23:57.113Z,8.40
2023-03-07T15:26:27.720Z,8.70
2023-03-07T15:29:09.012Z,7.70
2023-03-07T15:31:59.042Z,7.90
2023-03-07T15:34:31.188Z,7.40
2023-03-07T15:37:25.856Z,7.30
2023-03-07T15:40:23.338Z,9.00
2023-03-07T15:42:53.014Z,9.90
2023-03-07T15:45:32.545Z,11.10
2023-03-07T15:48:09.412Z,9.90
2023-03-07T15:50:38.164Z,9.70
2023-03-07T15:53:21.819Z,9.10
2023-03-07T15:56:03.556Z,10.00
2023-03-07T15:58:34.418Z,10.60
2023-03-07T16:01:19.840Z,10.30
2023-03-07T16:03:54.420Z,9.90
2023-03-07T16:06:38.299Z,8.50
2023-03-07T16:09:12.842Z,9.00
2023-03-07T16:11:42.354Z,8.80
2023-03-07T16:14:32.341Z,9.40
2023-03-07T16:17:06.423Z,9.60
2023-03-07T16:19:34.861Z,9.20
2023-03-07T16:22:03.300Z,8.80
2023-03-07T16:24:31.656Z,9.00
2023-03-07T16:27:00.054Z,9.80
2023-03-07T16:29:28.510Z,7.60
2023-03-07T16:31:56.908Z,8.10
2023-03-07T16:34:25.318Z,9.50
2023-03-07T16:36:53.645Z,9.40
2023-03-07T16:39:22.044Z,11.20
2023-03-07T16:41:50.897Z,9.00
2023-03-07T16:44:21.544Z,8.40
2023-03-07T16:47:05.398Z,8.60
2023-03-07T16:49:34.179Z,9.60
2023-03-07T16:52:06.497Z,10.40
2023-03-07T16:54:35.242Z,9.30
2023-03-07T16:57:04.320Z,11.20
2023-03-07T16:59:35.713Z,9.30
2023-03-07T17:02:15.056Z,10.70
2023-03-07T17:04:44.612Z,9.60
2023-03-07T17:07:18.763Z,9.40
2023-03-07T17:09:47.186Z,9.50
2023-03-07T17:12:16.746Z,11.30
2023-03-07T17:14:46.210Z,11.10
2023-03-07T17:17:23.785Z,11.50
2023-03-07T17:19:52.110Z,11.40
2023-03-07T17:22:20.477Z,12.80
2023-03-07T17:24:48.792Z,12.90
2023-03-07T17:27:18.437Z,13.00
2023-03-07T17:29:54.692Z,12.20
2023-03-07T17:32:23.486Z,11.40
2023-03-07T17:34:53.515Z,11.50
2023-03-07T17:37:22.833Z,11.30
2023-03-07T17:39:51.277Z,13.80
2023-03-07T17:42:20.722Z,10.20
2023-03-07T17:44:49.751Z,10.70
2023-03-07T17:47:18.379Z,11.80
2023-03-07T17:49:48.130Z,12.90
2023-03-07T17:52:16.579Z,12.70
2023-03-07T17:54:46.123Z,11.20
2023-03-07T17:57:15.277Z,13.00
2023-03-07T17:59:43.857Z,12.00
2023-03-07T18:02:14.022Z,11.90
2023-03-07T18:04:43.034Z,11.20
2023-03-07T18:07:11.357Z,11.20
2023-03-07T18:09:39.738Z,12.00
2023-03-07T18:12:08.687Z,15.00
2023-03-07T18:14:37.080Z,14.50
2023-03-07T18:17:05.565Z,15.60
2023-03-07T18:19:34.430Z,14.50
2023-03-07T18:22:02.794Z,14.90
2023-03-07T18:24:31.292Z,14.20
2023-03-07T18:27:00.721Z,14.90
2023-03-07T18:29:29.909Z,15.60
2023-03-07T18:31:58.615Z,14.80
2023-03-07T18:34:27.473Z,15.30
2023-03-07T18:36:56.253Z,15.30
2023-03-07T18:39:25.977Z,14.50
2023-03-07T18:41:54.439Z,14.00
2023-03-07T18:44:23.035Z,15.90
2023-03-07T18:46:52.428Z,14.70
2023-03-07T18:49:21.112Z,15.50
2023-03-07T18:51:50.557Z,15.10
2023-03-07T18:54:18.910Z,15.70
2023-03-07T18:56:48.251Z,16.10
2023-03-07T18:59:18.589Z,15.30
2023-03-07T19:01:50.404Z,16.00
2023-03-07T19:04:19.045Z,15.40
2023-03-07T19:06:48.767Z,14.20
2023-03-07T19:09:20.464Z,14.10
2023-03-07T19:11:48.974Z,14.90
2023-03-07T19:14:17.724Z,15.60
2023-03-07T19:16:46.319Z,16.70
2023-03-07T19:19:15.206Z,16.70
2023-03-07T19:21:43.789Z,16.70
2023-03-07T19:24:12.473Z,17.90
2023-03-07T19:26:43.598Z,18.60
2023-03-07T19:29:13.381Z,19.50
2023-03-07T19:31:44.150Z,19.50
2023-03-07T19:34:14.561Z,18.40
2023-03-07T19:36:43.034Z,19.50
2023-03-07T19:39:20.351Z,15.90
2023-03-07T19:41:48.860Z,15.70
2023-03-07T19:44:19.486Z,16.30
2023-03-07T19:46:48.712Z,18.70
2023-03-07T19:49:18.173Z,19.80
2023-03-07T19:51:46.774Z,19.70
2023-03-07T19:54:15.740Z,19.30
2023-03-07T19:56:45.898Z,16.20
2023-03-07T19:59:14.567Z,15.40
2023-03-07T20:01:43.383Z,17.10
2023-03-07T20:04:13.322Z,16.60
2023-03-07T20:06:43.970Z,14.50
2023-03-07T20:09:13.396Z,14.40
2023-03-07T20:11:45.568Z,14.00
2023-03-07T20:14:14.268Z,14.50
2023-03-07T20:16:42.745Z,14.80
2023-03-07T20:19:11.298Z,16.90
2023-03-07T20:21:42.553Z,18.10
2023-03-07T20:24:10.997Z,17.30
2023-03-07T20:26:39.493Z,16.30
2023-03-07T20:29:09.663Z,16.80
2023-03-07T20:31:39.582Z,17.90
2023-03-07T20:34:08.572Z,16.90
2023-03-07T20:36:37.933Z,18.50
2023-03-07T20:39:09.102Z,18.70
2023-03-07T20:41:37.517Z,17.30
2023-03-07T20:44:08.138Z,16.70
2023-03-07T20:46:38.501Z,16.80
2023-03-07T20:49:07.489Z,15.80
2023-03-07T20:51:37.073Z,15.50
2023-03-07T20:54:08.844Z,14.90
2023-03-07T20:56:39.331Z,14.20
2023-03-07T20:59:11.058Z,14.90
2023-03-07T21:01:39.993Z,17.00
2023-03-07T21:04:13.662Z,14.70
2023-03-07T21:06:44.111Z,16.70
2023-03-07T21:09:14.065Z,15.30
2023-03-07T21:11:45.326Z,15.60
2023-03-07T21:14:15.348Z,17.50
2023-03-07T21:16:43.987Z,17.60
2023-03-07T21:19:12.915Z,18.20
2023-03-07T21:21:41.970Z,19.90
2023-03-07T21:24:16.192Z,16.20
2023-03-07T21:26:44.813Z,18.10
2023-03-07T21:29:14.253Z,18.90
2023-03-07T21:31:42.787Z,17.00
2023-03-07T21:34:13.981Z,18.10
2023-03-07T21:36:42.767Z,22.10
2023-03-07T21:39:11.663Z,26.40
2023-03-07T21:41:40.044Z,25.60
2023-03-07T21:44:08.503Z,25.60
2023-03-07T21:46:37.696Z,21.60
2023-03-07T21:49:06.045Z,23.20
2023-03-07T21:51:34.480Z,22.50
2023-03-07T21:54:07.865Z,23.10
2023-03-07T21:56:37.999Z,20.60
2023-03-07T21:59:06.336Z,20.80
2023-03-07T22:01:34.717Z,21.20
2023-03-07T22:04:03.166Z,19.60
2023-03-07T22:06:31.591Z,18.10
2023-03-07T22:09:00.489Z,20.20
2023-03-07T22:11:28.951Z,18.00
2023-03-07T22:13:57.381Z,17.60
2023-03-07T22:16:25.830Z,16.30
2023-03-07T22:18:57.753Z,17.70
2023-03-07T22:21:26.919Z,15.40
2023-03-07T22:24:01.323Z,16.90
2023-03-07T22:26:31.728Z,19.10
2023-03-07T22:29:00.434Z,19.40
2023-03-07T22:31:28.899Z,20.90
2023-03-07T22:33:58.889Z,20.00
2023-03-07T22:36:27.679Z,19.40
2023-03-07T22:38:56.622Z,19.30
2023-03-07T22:41:25.591Z,19.40
2023-03-07T22:43:54.655Z,20.00
2023-03-07T22:46:23.387Z,22.10
2023-03-07T22:48:54.036Z,20.50
2023-03-07T22:51:27.130Z,20.20
2023-03-07T22:53:55.514Z,22.00
2023-03-07T22:56:26.564Z,20.60
2023-03-07T22:58:55.397Z,21.90
2023-03-07T23:01:26.780Z,20.40
2023-03-07T23:03:57.036Z,21.30
2023-03-07T23:06:29.723Z,18.80
2023-03-07T23:08:59.923Z,19.10
2023-03-07T23:11:30.387Z,20.20
2023-03-07T23:13:58.933Z,21.60
2023-03-07T23:16:29.860Z,21.40
2023-03-07T23:18:59.357Z,19.10
2023-03-07T23:21:30.506Z,20.70
2023-03-07T23:26:35.997Z,18.80
2023-03-07T23:29:09.988Z,19.70
2023-03-07T23:31:40.199Z,18.10
2023-03-07T23:34:15.800Z,20.80
2023-03-07T23:36:45.061Z,19.00
2023-03-07T23:39:15.030Z,18.30
2023-03-07T23:41:43.414Z,18.70
2023-03-07T23:44:12.774Z,25.70
2023-03-07T23:46:41.122Z,19.00
2023-03-07T23:49:11.030Z,19.30
2023-03-07T23:51:39.355Z,18.30
2023-03-07T23:54:07.752Z,15.00
2023-03-07T23:56:36.408Z,18.20
2023-03-07T23:59:04.781Z,15.50
